createdAt,value
2023-04-26T00:00:03.187Z,60
2023-04-26T00:20:02.763Z,61
2023-04-26T00:40:03.198Z,62
2023-04-26T01:00:02.683Z,63
2023-04-26T01:20:02.473Z,64
2023-04-26T01:40:02.894Z,64
2023-04-26T02:00:02.445Z,65
2023-04-26T02:20:03.129Z,66
2023-04-26T02:40:02.549Z,66
2023-04-26T03:00:02.917Z,67
2023-04-26T03:20:03.102Z,68
2023-04-26T03:40:02.513Z,68
2023-04-26T04:00:02.931Z,69
2023-04-26T04:20:02.441Z,69
2023-04-26T04:40:02.982Z,70
2023-04-26T05:00:02.530Z,70
2023-04-26T05:20:03.074Z,69
2023-04-26T05:40:02.482Z,68
2023-04-26T06:00:03.031Z,67
2023-04-26T06:20:02.814Z,66
2023-04-26T06:40:03.776Z,64
2023-04-26T07:00:03.969Z,62
2023-04-26T07:20:02.586Z,61
2023-04-26T07:40:03.188Z,57
2023-04-26T08:00:02.679Z,54
2023-04-26T08:20:02.928Z,54
2023-04-26T08:40:02.424Z,53
2023-04-26T09:00:03.813Z,51
2023-04-26T09:20:02.705Z,52
2023-04-26T09:40:03.084Z,52
2023-04-26T10:00:02.612Z,52
2023-04-26T10:20:03.379Z,47
2023-04-26T10:40:02.876Z,48
2023-04-26T11:00:02.903Z,48
2023-04-26T11:20:02.915Z,46
2023-04-26T11:40:02.510Z,47
2023-04-26T12:00:03.118Z,46
2023-04-26T12:20:02.814Z,44
2023-04-26T12:40:03.288Z,44
2023-04-26T13:00:03.988Z,42
2023-04-26T13:20:02.654Z,43
2023-04-26T13:40:03.130Z,43
2023-04-26T14:00:02.940Z,44
2023-04-26T14:20:02.781Z,43
2023-04-26T14:40:03.416Z,43
2023-04-26T15:00:02.974Z,44
2023-04-26T15:20:02.877Z,42
2023-04-26T16:20:05.146Z,47
2023-04-26T16:40:03.070Z,50
2023-04-26T17:00:02.758Z,49
2023-04-26T17:20:03.007Z,48
2023-04-26T17:40:02.534Z,49
2023-04-26T18:00:02.955Z,49
2023-04-26T18:20:03.117Z,48
2023-04-26T18:40:02.796Z,48
2023-04-26T19:00:03.372Z,49
2023-04-26T19:20:03.047Z,50
2023-04-26T19:40:02.774Z,52
2023-04-26T20:00:03.451Z,53
2023-04-26T20:20:03.149Z,53
2023-04-26T20:40:02.872Z,54
2023-04-26T21:00:03.445Z,55
2023-04-26T21:20:03.316Z,56
2023-04-26T21:40:02.909Z,56
2023-04-26T22:00:02.733Z,57
2023-04-26T22:20:04.233Z,58
2023-04-26T22:40:03.077Z,58
2023-04-26T23:00:02.667Z,59
2023-04-26T23:20:02.778Z,59
2023-04-26T23:40:02.937Z,59
